Time;durP1;ratioP1;P1;durP2;ratioP2;P2;SDS_P1;SDS_P2;PMS_P1;PMS_P2;Temp;Humidity;BMP_temperature;BMP_pressure;BME280_temperature;BME280_humidity;BME280_pressure;Samples;Min_cycle;Max_cycle;Signal;HPM_P1;HPM_P2
2024/01/03 00:00:57;;;;;;;2.63;0.50;;;11.00;90.00;;;;;;5111296;28;20205;-83
2024/01/03 00:03:25;;;;;;;2.57;0.50;;;11.00;5.60;;;;;;5112001;28;20228;-83
2024/01/03 00:05:52;;;;;;;6.03;0.97;;;11.20;1.00;;;;;;5113394;28;20217;-82
2024/01/03 00:08:26;;;;;;;1.90;1.07;;;11.30;1.00;;;;;;5113589;27;20203;-83
2024/01/03 00:10:55;;;;;;;3.23;0.80;;;11.30;1.00;;;;;;5117310;27;20268;-83
2024/01/03 00:14:06;;;;;;;5.30;0.80;;;11.40;1.00;;;;;;5111163;28;20893;-82
2024/01/03 00:16:35;;;;;;;1.40;0.83;;;11.40;1.00;;;;;;5109650;28;20569;-81
2024/01/03 00:19:03;;;;;;;1.33;0.50;;;11.20;1.00;;;;;;5105314;28;20200;-81
2024/01/03 00:21:30;;;;;;;2.27;0.50;;;11.20;99.90;;;;;;5112423;28;20877;-84
2024/01/03 00:24:01;;;;;;;4.93;1.17;;;11.10;99.90;;;;;;5109158;28;20225;-84
2024/01/03 00:26:30;;;;;;;5.07;1.20;;;11.10;99.90;;;;;;5109112;28;20233;-83
2024/01/03 00:28:57;;;;;;;4.83;1.00;;;11.10;99.90;;;;;;5113364;28;20231;-81
2024/01/03 00:31:43;;;;;;;4.50;1.30;;;11.00;99.90;;;;;;5110497;28;20200;-83
2024/01/03 00:34:37;;;;;;;4.07;1.17;;;10.90;99.90;;;;;;5111603;28;20255;-83
2024/01/03 00:37:17;;;;;;;7.30;1.37;;;10.90;99.90;;;;;;5111499;28;20549;-83
2024/01/03 00:39:46;;;;;;;2.80;1.13;;;11.00;99.90;;;;;;5109218;28;20200;-82
2024/01/03 00:42:13;;;;;;;5.40;1.07;;;10.90;99.90;;;;;;5110487;28;20627;-83
2024/01/03 00:44:39;;;;;;;5.70;1.30;;;10.80;99.90;;;;;;5109289;28;20577;-83
2024/01/03 00:47:07;;;;;;;5.70;1.53;;;10.90;1.00;;;;;;5109835;28;20284;-82
2024/01/03 00:49:34;;;;;;;5.30;2.03;;;10.80;1.00;;;;;;5107523;28;20584;-82
2024/01/03 00:52:02;;;;;;;7.00;1.13;;;10.90;1.00;;;;;;5109820;27;20216;-84
2024/01/03 00:54:31;;;;;;;4.60;1.70;;;10.80;1.00;;;;;;5108457;28;20204;-83
2024/01/03 00:57:00;;;;;;;4.83;1.13;;;10.80;1.00;;;;;;5107048;28;20672;-82
2024/01/03 00:59:28;;;;;;;7.17;1.40;;;10.80;1.00;;;;;;5114232;28;20201;-83
2024/01/03 01:01:57;;;;;;;10.13;2.40;;;10.90;1.00;;;;;;5110181;28;20722;-82
2024/01/03 01:04:24;;;;;;;5.33;1.40;;;10.80;1.00;;;;;;5110464;28;20193;-83
2024/01/03 01:06:51;;;;;;;4.73;1.60;;;10.90;1.00;;;;;;5105759;28;20615;-82
2024/01/03 01:09:17;;;;;;;7.37;1.70;;;10.80;1.00;;;;;;5112631;28;20577;-83
2024/01/03 01:11:44;;;;;;;4.07;1.53;;;10.90;1.00;;;;;;5113497;28;20589;-82
2024/01/03 01:14:12;;;;;;;5.57;1.30;;;11.00;1.00;;;;;;5112919;28;20589;-81
2024/01/03 01:16:39;;;;;;;6.60;1.30;;;10.90;1.00;;;;;;5107017;28;20197;-83
2024/01/03 01:19:07;;;;;;;6.63;1.90;;;10.90;1.00;;;;;;5111542;28;20201;-82
2024/01/03 01:21:34;;;;;;;4.57;1.10;;;10.90;1.00;;;;;;5108712;27;20201;-81
2024/01/03 01:24:01;;;;;;;6.10;1.60;;;10.90;1.00;;;;;;5107099;28;20585;-81
2024/01/03 01:26:27;;;;;;;7.27;2.20;;;10.90;1.00;;;;;;5109755;28;20238;-81
2024/01/03 01:28:54;;;;;;;6.87;2.00;;;11.00;1.00;;;;;;5112090;28;20198;-82
2024/01/03 01:31:22;;;;;;;7.23;1.77;;;10.90;1.00;;;;;;5113493;28;20204;-83
2024/01/03 01:33:49;;;;;;;7.90;1.37;;;11.00;1.00;;;;;;5106297;28;20224;-82
2024/01/03 01:36:16;;;;;;;5.60;1.57;;;11.00;1.00;;;;;;5112901;28;20217;-84
2024/01/03 01:38:43;;;;;;;3.90;1.00;;;11.00;1.00;;;;;;5111773;28;20223;-83
2024/01/03 01:41:10;;;;;;;4.63;1.03;;;10.90;1.00;;;;;;5113888;28;20201;-84
2024/01/03 01:43:37;;;;;;;8.57;1.63;;;11.00;1.00;;;;;;5104089;28;20221;-83
2024/01/03 01:46:04;;;;;;;9.63;2.23;;;10.90;1.00;;;;;;5112066;28;20203;-81
2024/01/03 01:48:34;;;;;;;8.93;2.23;;;10.80;1.00;;;;;;5114477;28;20695;-81
2024/01/03 01:51:00;;;;;;;7.60;1.80;;;10.80;1.00;;;;;;5109238;28;20197;-82
2024/01/03 01:53:28;;;;;;;8.27;2.20;;;10.80;1.00;;;;;;5113448;27;20230;-83
2024/01/03 01:55:56;;;;;;;8.10;1.83;;;10.70;1.00;;;;;;5112835;28;20297;-84
2024/01/03 01:58:23;;;;;;;6.73;1.80;;;10.70;1.00;;;;;;5114332;28;20257;-81
2024/01/03 02:00:50;;;;;;;11.00;2.77;;;10.70;1.00;;;;;;5117791;27;20201;-84
2024/01/03 02:03:17;;;;;;;7.57;1.57;;;10.80;1.00;;;;;;5113084;28;20602;-83
2024/01/03 02:05:46;;;;;;;8.90;1.57;;;10.80;1.00;;;;;;5116806;27;20215;-83
2024/01/03 02:08:13;;;;;;;5.73;1.97;;;10.80;1.00;;;;;;5114784;28;20227;-83
2024/01/03 02:10:39;;;;;;;6.97;1.50;;;10.80;1.00;;;;;;5118446;28;20204;-82
2024/01/03 02:13:06;;;;;;;7.47;1.87;;;11.00;1.00;;;;;;5116080;28;20324;-84
2024/01/03 02:15:33;;;;;;;6.93;2.00;;;11.00;1.00;;;;;;5117332;28;20197;-82
2024/01/03 02:18:01;;;;;;;6.97;2.13;;;11.10;1.00;;;;;;5117308;28;20205;-83
2024/01/03 02:20:32;;;;;;;5.70;1.60;;;11.30;1.00;;;;;;5115033;28;20270;-83
2024/01/03 02:23:00;;;;;;;6.17;1.77;;;11.20;1.00;;;;;;5114737;28;20224;-82
2024/01/03 02:25:27;;;;;;;6.57;1.97;;;11.20;1.00;;;;;;5110835;28;20204;-83
2024/01/03 02:27:53;;;;;;;6.63;1.80;;;11.20;1.00;;;;;;5112838;28;20217;-83
2024/01/03 02:30:20;;;;;;;10.53;1.57;;;11.20;1.00;;;;;;5115269;28;20197;-83
2024/01/03 02:32:47;;;;;;;6.50;1.97;;;11.20;1.00;;;;;;5115127;28;20232;-83
2024/01/03 02:35:14;;;;;;;6.43;1.30;;;11.10;1.00;;;;;;5112193;28;20572;-81
2024/01/03 02:37:41;;;;;;;5.50;1.30;;;11.10;1.00;;;;;;5108614;28;20193;-82
2024/01/03 02:40:10;;;;;;;5.90;1.33;;;11.20;1.00;;;;;;5116378;28;20201;-82
2024/01/03 02:42:36;;;;;;;5.60;1.23;;;11.10;1.00;;;;;;5108861;28;20228;-84
2024/01/03 02:45:04;;;;;;;6.97;1.90;;;11.20;1.00;;;;;;5107044;28;20201;-82
2024/01/03 02:47:30;;;;;;;6.30;1.60;;;11.10;1.00;;;;;;5107933;28;20671;-82
2024/01/03 02:49:58;;;;;;;7.90;1.53;;;11.10;1.00;;;;;;5110297;28;20201;-82
2024/01/03 02:52:25;;;;;;;5.67;1.47;;;11.00;1.00;;;;;;5112890;28;20220;-80
2024/01/03 02:54:52;;;;;;;5.43;1.33;;;11.10;1.00;;;;;;5114212;28;20262;-81
2024/01/03 02:57:20;;;;;;;5.10;1.23;;;11.00;1.00;;;;;;5113350;28;20195;-81
2024/01/03 02:59:47;;;;;;;4.27;1.60;;;10.90;1.00;;;;;;5114594;28;20199;-82
2024/01/03 03:02:14;;;;;;;4.73;1.23;;;11.00;1.00;;;;;;5111859;28;20221;-81
2024/01/03 03:04:41;;;;;;;6.03;1.27;;;10.90;1.00;;;;;;5111620;28;20197;-81
2024/01/03 03:07:07;;;;;;;3.87;0.90;;;11.00;1.00;;;;;;5116193;28;20216;-81
2024/01/03 03:09:34;;;;;;;9.20;1.60;;;11.10;1.00;;;;;;5113377;27;20279;-81
2024/01/03 03:12:01;;;;;;;7.13;2.10;;;11.10;1.00;;;;;;5113807;28;20203;-82
2024/01/03 03:14:29;;;;;;;4.97;2.60;;;11.20;1.00;;;;;;5114502;28;20198;-84
2024/01/03 03:16:56;;;;;;;3.67;1.33;;;11.20;1.00;;;;;;5115448;27;20209;-82
2024/01/03 03:19:23;;;;;;;9.57;1.77;;;11.10;1.00;;;;;;5113431;28;20201;-81
2024/01/03 03:21:50;;;;;;;12.63;2.00;;;11.10;1.00;;;;;;5116729;28;20312;-82
2024/01/03 03:24:17;;;;;;;6.30;1.40;;;11.00;1.00;;;;;;5109000;28;20224;-82
2024/01/03 03:26:43;;;;;;;6.10;1.53;;;11.10;1.00;;;;;;5106682;28;20573;-81
2024/01/03 03:29:10;;;;;;;5.93;1.80;;;11.00;1.00;;;;;;5113405;28;20209;-82
2024/01/03 03:31:38;;;;;;;4.23;1.60;;;10.90;1.00;;;;;;5110286;28;20193;-82
2024/01/03 03:34:05;;;;;;;4.63;1.33;;;11.00;1.00;;;;;;5116303;28;20221;-80
2024/01/03 03:36:32;;;;;;;15.70;2.10;;;11.00;1.00;;;;;;5114375;28;20212;-79
2024/01/03 03:38:59;;;;;;;6.77;1.43;;;11.10;1.00;;;;;;5113588;28;20200;-82
2024/01/03 03:41:25;;;;;;;5.77;1.53;;;11.20;1.00;;;;;;5115240;28;20193;-81
2024/01/03 03:43:52;;;;;;;10.37;1.83;;;11.10;1.00;;;;;;5106964;27;20239;-83
2024/01/03 03:46:19;;;;;;;6.20;1.60;;;11.20;1.00;;;;;;5110201;28;20197;-81
2024/01/03 03:48:47;;;;;;;4.20;1.60;;;11.20;1.00;;;;;;5111043;28;20229;-81
2024/01/03 03:51:14;;;;;;;8.23;2.10;;;11.10;1.00;;;;;;5118649;28;20197;-82
2024/01/03 03:53:41;;;;;;;7.77;1.33;;;11.10;1.00;;;;;;5114293;27;20232;-81
2024/01/03 03:56:08;;;;;;;4.67;1.30;;;11.00;1.00;;;;;;5110484;28;20216;-81
2024/01/03 03:58:35;;;;;;;3.80;1.40;;;11.10;1.00;;;;;;5114647;28;20288;-82
2024/01/03 04:01:02;;;;;;;6.43;1.90;;;11.00;1.00;;;;;;5115283;28;20207;-82
2024/01/03 04:03:29;;;;;;;7.70;1.57;;;11.00;1.00;;;;;;5113316;28;20225;-80
2024/01/03 04:05:57;;;;;;;6.07;1.80;;;10.90;1.00;;;;;;5110468;28;20300;-80
2024/01/03 04:08:24;;;;;;;3.97;1.50;;;10.90;1.00;;;;;;5111643;28;20603;-81
2024/01/03 04:10:51;;;;;;;5.00;1.87;;;10.80;1.00;;;;;;5117776;27;20312;-80
2024/01/03 04:13:18;;;;;;;6.63;1.80;;;10.60;1.00;;;;;;5117822;28;20252;-81
2024/01/03 04:15:44;;;;;;;3.37;1.50;;;10.60;1.00;;;;;;5111489;28;20197;-80
2024/01/03 04:18:11;;;;;;;5.93;1.70;;;10.60;1.00;;;;;;5115808;28;20292;-80
2024/01/03 04:20:38;;;;;;;9.07;1.80;;;10.40;43.70;;;;;;5118104;28;20243;-81
2024/01/03 04:23:06;;;;;;;8.40;1.80;;;10.30;99.90;;;;;;5118296;28;20229;-83
2024/01/03 04:25:33;;;;;;;5.10;1.53;;;10.30;99.90;;;;;;5112507;28;20246;-82
2024/01/03 04:28:00;;;;;;;9.20;2.60;;;10.30;99.90;;;;;;5112817;28;20281;-80
2024/01/03 04:30:26;;;;;;;6.20;2.07;;;10.40;99.90;;;;;;5110497;28;20227;-81
2024/01/03 04:32:53;;;;;;;8.07;1.57;;;10.40;1.00;;;;;;5114976;28;20604;-83
2024/01/03 04:35:20;;;;;;;4.87;1.73;;;10.40;1.00;;;;;;5113716;28;20292;-82
2024/01/03 04:37:47;;;;;;;6.97;2.50;;;10.50;1.00;;;;;;5111090;28;20208;-82
2024/01/03 04:40:15;;;;;;;8.37;2.03;;;10.60;1.00;;;;;;5112028;28;20232;-83
2024/01/03 04:42:43;;;;;;;7.13;1.90;;;10.50;1.00;;;;;;5105509;28;20699;-83
2024/01/03 04:45:10;;;;;;;7.53;2.30;;;10.60;1.00;;;;;;5109635;28;20203;-82
2024/01/03 04:47:37;;;;;;;7.07;2.00;;;10.70;1.00;;;;;;5107153;27;20279;-81
2024/01/03 04:50:04;;;;;;;8.63;2.03;;;10.60;1.00;;;;;;5108025;28;20201;-83
2024/01/03 04:52:31;;;;;;;6.47;1.60;;;10.60;1.00;;;;;;5103572;28;20221;-83
2024/01/03 04:54:58;;;;;;;7.90;1.77;;;10.70;1.00;;;;;;5102634;28;20204;-80
2024/01/03 04:57:26;;;;;;;7.97;1.67;;;10.70;1.00;;;;;;5112602;28;20189;-84
2024/01/03 04:59:52;;;;;;;9.40;2.23;;;10.60;1.00;;;;;;5107792;28;20205;-84
2024/01/03 05:02:19;;;;;;;4.90;1.83;;;10.60;1.00;;;;;;5109463;28;20213;-80
2024/01/03 05:04:46;;;;;;;9.03;2.13;;;10.60;1.00;;;;;;5111265;28;20197;-80
2024/01/03 05:07:13;;;;;;;7.37;1.50;;;10.70;1.00;;;;;;5107503;28;20723;-82
2024/01/03 05:09:39;;;;;;;6.17;1.87;;;10.70;1.00;;;;;;5112132;28;20242;-81
2024/01/03 05:12:06;;;;;;;5.70;1.73;;;10.70;1.00;;;;;;5112142;28;20204;-82
2024/01/03 05:14:35;;;;;;;4.00;1.50;;;10.70;1.00;;;;;;5109408;28;20204;-82
2024/01/03 05:17:01;;;;;;;6.70;1.47;;;10.70;1.00;;;;;;5109441;28;20201;-83
2024/01/03 05:19:28;;;;;;;5.63;1.50;;;10.70;1.00;;;;;;5111316;28;20347;-81
2024/01/03 05:21:55;;;;;;;5.33;1.20;;;10.80;1.00;;;;;;5112828;28;20203;-82
2024/01/03 05:24:22;;;;;;;7.97;1.50;;;10.80;1.00;;;;;;5110659;28;20675;-81
2024/01/03 05:26:49;;;;;;;2.30;1.10;;;10.90;1.00;;;;;;5111426;28;20207;-82
2024/01/03 05:29:15;;;;;;;3.57;1.07;;;10.90;1.00;;;;;;5115210;28;20227;-81
2024/01/03 05:31:44;;;;;;;2.90;1.00;;;10.80;1.00;;;;;;5112253;28;20269;-82
2024/01/03 05:34:11;;;;;;;6.17;1.50;;;10.80;1.00;;;;;;5115616;28;20706;-82
2024/01/03 05:36:38;;;;;;;4.90;1.37;;;10.70;1.00;;;;;;5116947;28;20209;-82
2024/01/03 05:39:05;;;;;;;5.73;1.40;;;10.70;1.00;;;;;;5115853;28;20200;-82
2024/01/03 05:41:31;;;;;;;7.00;1.77;;;10.70;1.00;;;;;;5115878;27;20264;-82
2024/01/03 05:43:58;;;;;;;5.47;1.33;;;10.70;1.00;;;;;;5107157;28;20241;-82
2024/01/03 05:46:25;;;;;;;5.37;1.63;;;10.70;1.00;;;;;;5106648;28;20677;-80
2024/01/03 05:48:53;;;;;;;7.83;1.47;;;10.80;1.00;;;;;;5107131;28;20220;-81
2024/01/03 05:51:21;;;;;;;7.83;1.93;;;10.60;1.00;;;;;;5112315;28;20193;-82
2024/01/03 05:53:49;;;;;;;5.67;1.97;;;10.70;1.00;;;;;;5108980;28;20668;-83
2024/01/03 05:56:15;;;;;;;7.20;2.40;;;10.70;1.00;;;;;;5111738;28;20288;-83
2024/01/03 05:58:43;;;;;;;6.17;2.20;;;10.60;1.00;;;;;;5112218;28;20194;-81
2024/01/03 06:01:09;;;;;;;7.53;2.00;;;10.60;1.00;;;;;;5104647;28;20942;-82
2024/01/03 06:03:36;;;;;;;5.83;1.80;;;10.70;1.00;;;;;;5111184;28;20704;-82
2024/01/03 06:06:05;;;;;;;7.93;1.63;;;10.70;1.00;;;;;;5109971;28;20232;-82
2024/01/03 06:08:32;;;;;;;6.97;1.70;;;10.70;1.00;;;;;;5116912;28;20217;-81
2024/01/03 06:10:59;;;;;;;9.43;1.70;;;10.80;1.00;;;;;;5113458;27;20233;-81
2024/01/03 06:13:25;;;;;;;5.17;1.60;;;10.70;1.00;;;;;;5115759;28;20231;-82
2024/01/03 06:15:52;;;;;;;5.73;1.80;;;10.80;1.00;;;;;;5116159;28;20197;-83
2024/01/03 06:18:21;;;;;;;8.50;1.80;;;10.70;1.00;;;;;;5114957;28;20200;-82
2024/01/03 06:20:48;;;;;;;5.67;1.50;;;10.70;1.00;;;;;;5115714;28;20201;-80
2024/01/03 06:23:16;;;;;;;5.30;1.27;;;10.80;1.00;;;;;;5115144;28;20235;-82
2024/01/03 06:25:42;;;;;;;6.17;1.43;;;10.70;1.00;;;;;;5112606;28;20198;-82
2024/01/03 06:28:09;;;;;;;7.80;1.23;;;10.80;1.00;;;;;;5115733;28;20321;-82
2024/01/03 06:30:36;;;;;;;3.37;1.60;;;10.90;1.00;;;;;;5114414;28;20197;-83
2024/01/03 06:33:03;;;;;;;7.70;1.73;;;10.80;1.00;;;;;;5109528;28;20232;-83
2024/01/03 06:35:32;;;;;;;7.37;1.60;;;10.80;1.00;;;;;;5114410;27;20207;-82
2024/01/03 06:37:59;;;;;;;6.40;1.70;;;10.80;1.00;;;;;;5114970;28;20592;-81
2024/01/03 06:40:27;;;;;;;5.97;1.60;;;10.80;1.00;;;;;;5116335;28;20227;-82
2024/01/03 06:42:54;;;;;;;3.60;1.50;;;10.80;1.00;;;;;;5113176;28;20232;-81
2024/01/03 06:45:21;;;;;;;8.37;2.10;;;10.80;1.00;;;;;;5098315;28;20582;-81
2024/01/03 06:47:48;;;;;;;7.23;1.20;;;10.80;1.00;;;;;;5099103;28;20454;-83
2024/01/03 06:50:15;;;;;;;6.97;1.57;;;10.80;1.00;;;;;;5110715;28;20205;-81
2024/01/03 06:52:41;;;;;;;5.57;1.33;;;10.80;1.00;;;;;;5116030;28;20599;-83
2024/01/03 06:55:09;;;;;;;7.37;1.63;;;10.70;1.00;;;;;;5109415;28;20236;-81
2024/01/03 06:57:37;;;;;;;6.37;1.77;;;10.80;1.00;;;;;;5115327;28;20570;-82
2024/01/03 07:00:04;;;;;;;4.17;1.20;;;10.90;1.00;;;;;;5107944;28;20200;-81
2024/01/03 07:02:32;;;;;;;6.00;1.63;;;10.80;1.00;;;;;;5110537;28;20243;-82
2024/01/03 07:04:58;;;;;;;7.23;1.90;;;10.80;1.00;;;;;;5104685;28;20201;-81
2024/01/03 07:07:25;;;;;;;5.10;1.30;;;10.70;1.00;;;;;;5111121;28;20280;-83
2024/01/03 07:09:52;;;;;;;6.23;1.63;;;10.70;1.00;;;;;;5115821;28;20225;-81
2024/01/03 07:12:19;;;;;;;5.20;1.40;;;10.70;1.00;;;;;;5112543;28;20273;-81
2024/01/03 07:14:48;;;;;;;5.90;1.13;;;10.70;1.00;;;;;;5111660;27;20205;-82
2024/01/03 07:17:15;;;;;;;4.03;1.40;;;10.70;1.00;;;;;;5109184;28;20233;-82
2024/01/03 07:19:42;;;;;;;6.77;1.37;;;10.80;1.00;;;;;;5109658;28;20638;-82
2024/01/03 07:22:08;;;;;;;8.47;1.87;;;10.60;1.00;;;;;;5112282;27;20663;-80
2024/01/03 07:24:36;;;;;;;4.20;1.47;;;10.60;1.00;;;;;;5108298;28;20198;-79
2024/01/03 07:27:03;;;;;;;5.70;1.70;;;10.50;1.00;;;;;;5106772;28;20197;-82
2024/01/03 07:29:30;;;;;;;6.57;2.03;;;10.40;1.00;;;;;;5109749;28;20665;-84
2024/01/03 07:31:58;;;;;;;7.20;1.37;;;10.40;1.00;;;;;;5113030;28;20391;-82
2024/01/03 07:34:26;;;;;;;5.53;1.67;;;10.50;1.00;;;;;;5114858;28;20204;-83
2024/01/03 07:36:53;;;;;;;3.13;1.20;;;10.40;1.00;;;;;;5113612;28;20233;-80
2024/01/03 07:39:20;;;;;;;7.10;1.80;;;10.40;1.00;;;;;;5114376;27;20193;-82
2024/01/03 07:41:47;;;;;;;5.67;1.60;;;10.40;1.00;;;;;;5112394;28;20204;-82
2024/01/03 07:44:14;;;;;;;5.70;1.40;;;10.40;1.00;;;;;;5102254;28;20228;-80
2024/01/03 07:46:41;;;;;;;8.00;1.70;;;10.50;1.00;;;;;;5111326;28;20197;-82
2024/01/03 07:49:10;;;;;;;6.80;1.50;;;10.40;1.00;;;;;;5095799;28;20216;-84
2024/01/03 07:51:38;;;;;;;3.80;1.40;;;10.40;1.00;;;;;;5096980;28;20284;-83
2024/01/03 07:54:07;;;;;;;6.53;1.93;;;10.50;2.00;;;;;;5114597;28;20249;-81
2024/01/03 07:56:34;;;;;;;3.70;1.30;;;10.40;1.00;;;;;;5109352;28;20205;-82
2024/01/03 07:59:00;;;;;;;5.87;1.80;;;10.60;1.00;;;;;;5105330;28;20489;-83
2024/01/03 08:01:27;;;;;;;6.27;1.30;;;10.50;1.00;;;;;;5098923;28;20208;-81
2024/01/03 08:03:55;;;;;;;5.90;1.70;;;10.60;1.00;;;;;;5113209;28;20223;-83
2024/01/03 08:06:23;;;;;;;5.90;1.47;;;10.80;1.00;;;;;;5100168;28;20297;-83
2024/01/03 08:08:50;;;;;;;7.37;1.80;;;10.70;1.00;;;;;;5107673;28;20233;-83
2024/01/03 08:11:17;;;;;;;6.27;1.30;;;10.80;1.00;;;;;;5106800;28;20189;-81
2024/01/03 08:13:43;;;;;;;7.77;1.40;;;10.70;1.00;;;;;;5102584;28;20217;-81
2024/01/03 08:16:11;;;;;;;8.13;1.83;;;10.70;1.00;;;;;;5109260;28;20631;-81
2024/01/03 08:18:39;;;;;;;5.13;1.30;;;10.90;1.00;;;;;;5107196;28;20193;-81
2024/01/03 08:21:06;;;;;;;7.07;1.97;;;10.80;1.00;;;;;;5107492;28;20280;-84
2024/01/03 08:23:34;;;;;;;2.60;1.30;;;10.80;1.00;;;;;;5110855;28;20225;-83
2024/01/03 08:26:00;;;;;;;2.97;1.20;;;10.80;1.00;;;;;;5108609;27;20197;-82
2024/01/03 08:28:27;;;;;;;5.00;1.17;;;10.90;1.00;;;;;;5111966;28;20227;-82
2024/01/03 08:30:54;;;;;;;3.47;1.33;;;10.80;1.00;;;;;;5112109;27;20211;-82
2024/01/03 08:33:21;;;;;;;4.47;1.13;;;10.90;1.00;;;;;;5111724;28;20219;-83
2024/01/03 08:35:47;;;;;;;6.33;1.50;;;10.90;1.00;;;;;;5110199;28;20201;-84
2024/01/03 08:38:14;;;;;;;5.83;1.90;;;10.90;1.00;;;;;;5111647;27;20205;-83
2024/01/03 08:40:42;;;;;;;5.30;1.07;;;10.90;1.00;;;;;;5112049;28;20689;-81
2024/01/03 08:43:09;;;;;;;3.83;0.70;;;10.90;1.00;;;;;;5113993;28;20221;-82
2024/01/03 08:45:36;;;;;;;6.73;1.20;;;10.80;1.00;;;;;;5113494;28;20207;-81
2024/01/03 08:48:05;;;;;;;3.20;1.10;;;10.90;1.00;;;;;;5103515;28;20208;-82
2024/01/03 08:50:32;;;;;;;2.00;1.13;;;10.80;1.00;;;;;;5096235;28;20218;-83
2024/01/03 08:53:00;;;;;;;5.07;0.83;;;10.90;1.00;;;;;;5104845;28;20574;-82
2024/01/03 08:55:26;;;;;;;3.37;0.80;;;10.90;1.00;;;;;;5115126;27;20624;-83
2024/01/03 08:57:56;;;;;;;1.73;0.60;;;10.90;1.00;;;;;;5105418;27;20650;-79
2024/01/03 09:00:24;;;;;;;1.87;0.80;;;10.80;1.00;;;;;;5103523;28;20225;-82
2024/01/03 09:02:50;;;;;;;1.37;0.73;;;10.80;1.00;;;;;;5112202;28;20228;-81
2024/01/03 09:05:18;;;;;;;3.53;0.67;;;10.80;1.00;;;;;;5114982;28;20212;-80
2024/01/03 09:07:45;;;;;;;3.00;1.37;;;10.80;1.00;;;;;;5103632;28;20225;-83
2024/01/03 09:10:12;;;;;;;2.63;1.10;;;10.90;1.00;;;;;;5103814;28;20223;-82
2024/01/03 09:12:39;;;;;;;3.37;1.00;;;11.00;1.00;;;;;;5113436;28;20217;-82
2024/01/03 09:15:08;;;;;;;1.27;0.70;;;11.00;1.00;;;;;;5107935;28;20713;-81
2024/01/03 09:17:35;;;;;;;5.03;1.13;;;11.00;1.00;;;;;;5101387;28;20695;-82
2024/01/03 09:20:02;;;;;;;2.87;1.20;;;11.00;1.00;;;;;;5112936;28;20197;-82
2024/01/03 09:22:29;;;;;;;1.30;0.50;;;10.90;1.00;;;;;;5117139;28;20217;-80
2024/01/03 09:24:56;;;;;;;1.17;0.43;;;11.10;1.00;;;;;;5118853;28;20387;-82
2024/01/03 09:27:23;;;;;;;3.07;0.67;;;11.00;1.00;;;;;;5113785;27;20684;-82
2024/01/03 09:29:49;;;;;;;1.33;0.30;;;11.10;1.00;;;;;;5110441;28;20280;-81
2024/01/03 09:32:18;;;;;;;2.20;0.50;;;11.10;1.00;;;;;;5116712;28;20260;-81
2024/01/03 09:34:45;;;;;;;1.73;0.47;;;11.20;1.00;;;;;;5119409;28;20260;-80
2024/01/03 09:37:12;;;;;;;0.90;0.47;;;11.10;1.00;;;;;;5113613;28;20197;-81
2024/01/03 09:39:38;;;;;;;0.80;0.30;;;11.20;1.00;;;;;;5113725;28;20619;-81
2024/01/03 09:42:05;;;;;;;2.40;1.13;;;11.10;1.00;;;;;;5113952;28;20216;-80
2024/01/03 09:44:33;;;;;;;1.37;0.57;;;11.10;1.00;;;;;;5115691;28;20556;-82
2024/01/03 09:47:01;;;;;;;2.23;0.53;;;10.80;1.00;;;;;;5120755;28;20203;-82
2024/01/03 09:49:29;;;;;;;2.73;0.70;;;10.70;99.90;;;;;;5114891;28;20701;-80
2024/01/03 09:51:56;;;;;;;3.17;1.30;;;10.70;99.90;;;;;;5116934;28;20211;-81
2024/01/03 09:54:23;;;;;;;3.47;1.03;;;10.60;1.00;;;;;;5116308;28;20205;-83
2024/01/03 09:56:52;;;;;;;5.47;1.13;;;10.40;99.90;;;;;;5110053;28;20205;-81
2024/01/03 09:59:21;;;;;;;2.87;1.40;;;10.20;1.00;;;;;;5104821;28;20193;-83
2024/01/03 10:01:55;;;;;;;2.10;0.80;;;10.00;99.90;;;;;;5110084;28;20201;-81
2024/01/03 10:04:22;;;;;;;3.83;1.23;;;9.90;51.70;;;;;;5118148;28;20570;-81
2024/01/03 10:06:55;;;;;;;5.20;1.70;;;9.80;1.00;;;;;;5116589;28;20209;-81
2024/01/03 10:09:22;;;;;;;2.67;1.33;;;9.70;1.00;;;;;;5113755;28;20308;-80
2024/01/03 10:11:51;;;;;;;5.70;1.37;;;9.70;99.90;;;;;;5114069;28;20205;-81
2024/01/03 10:14:19;;;;;;;1.90;1.10;;;9.70;1.00;;;;;;5109741;28;20476;-81
2024/01/03 10:16:47;;;;;;;1.90;1.20;;;9.90;1.00;;;;;;5117311;27;20192;-81
2024/01/03 10:19:15;;;;;;;5.93;1.83;;;9.70;8.50;;;;;;5117322;28;20241;-80
2024/01/03 10:21:48;;;;;;;4.23;1.30;;;9.60;12.70;;;;;;5111560;28;20297;-81
2024/01/03 10:24:16;;;;;;;3.70;1.50;;;9.70;93.40;;;;;;5109292;27;20308;-81
2024/01/03 10:26:45;;;;;;;5.43;1.97;;;9.60;99.90;;;;;;5110358;28;20203;-80
2024/01/03 10:29:13;;;;;;;4.93;2.17;;;9.60;99.90;;;;;;5118752;28;20249;-81
2024/01/03 10:31:40;;;;;;;5.37;1.27;;;9.60;99.90;;;;;;5114294;28;20236;-80
2024/01/03 10:34:12;;;;;;;5.17;1.17;;;9.50;99.90;;;;;;5120879;28;20225;-81
2024/01/03 10:36:40;;;;;;;2.17;1.03;;;9.50;99.90;;;;;;5118855;28;20208;-82
2024/01/03 10:39:08;;;;;;;5.93;1.00;;;9.50;99.90;;;;;;5119634;27;20204;-81
2024/01/03 10:41:38;;;;;;;4.30;0.93;;;9.40;99.90;;;;;;5127957;27;20223;-81
2024/01/03 10:44:06;;;;;;;5.33;1.20;;;9.40;99.90;;;;;;5117012;28;20296;-82
2024/01/03 10:46:33;;;;;;;2.17;0.90;;;9.40;99.90;;;;;;5116459;28;20621;-82
2024/01/03 10:49:01;;;;;;;0.90;0.50;;;9.40;99.90;;;;;;5118114;28;20208;-80
2024/01/03 10:51:32;;;;;;;2.17;0.43;;;9.30;99.90;;;;;;5121045;28;20205;-82
2024/01/03 10:54:00;;;;;;;2.20;0.50;;;9.30;1.00;;;;;;5121264;28;20715;-82
2024/01/03 10:56:31;;;;;;;1.73;0.70;;;9.30;31.80;;;;;;5121782;28;20284;-82
2024/01/03 10:59:00;;;;;;;2.90;1.57;;;9.30;99.90;;;;;;5120254;28;20209;-82
2024/01/03 11:01:30;;;;;;;2.33;0.60;;;9.30;1.00;;;;;;5114386;28;20200;-82
2024/01/03 11:04:05;;;;;;;1.50;0.40;;;9.30;1.00;;;;;;5110081;27;20226;-80
2024/01/03 11:06:39;;;;;;;2.00;0.63;;;9.30;1.00;;;;;;5112846;28;20230;-79
2024/01/03 11:09:08;;;;;;;1.00;0.50;;;9.40;1.00;;;;;;5109901;27;20231;-80
2024/01/03 11:11:36;;;;;;;3.43;1.00;;;9.50;1.00;;;;;;5118437;28;20203;-81
2024/01/03 11:14:23;;;;;;;2.97;0.80;;;9.50;99.90;;;;;;5115592;28;20284;-80
2024/01/03 11:16:50;;;;;;;1.70;0.90;;;9.60;39.40;;;;;;5113145;28;20180;-81
2024/01/03 11:19:27;;;;;;;2.43;0.70;;;9.60;1.00;;;;;;5111155;28;20256;-80
2024/01/03 11:21:54;;;;;;;3.27;0.63;;;9.70;1.00;;;;;;5109410;28;20264;-82
2024/01/03 11:24:54;;;;;;;1.07;0.53;;;9.80;99.90;;;;;;5113648;28;20193;-81
2024/01/03 11:27:24;;;;;;;2.83;0.97;;;10.00;1.00;;;;;;5120720;28;20671;-80
2024/01/03 11:29:54;;;;;;;1.77;0.80;;;9.90;94.10;;;;;;5122125;28;20771;-80
2024/01/03 11:32:35;;;;;;;1.90;0.80;;;10.00;99.90;;;;;;5115581;28;20221;-81
2024/01/03 11:35:04;;;;;;;2.00;0.93;;;9.90;1.00;;;;;;5111613;28;20205;-81
2024/01/03 11:37:36;;;;;;;3.77;1.23;;;9.90;99.90;;;;;;5105052;28;20285;-83
2024/01/03 11:40:06;;;;;;;4.13;0.97;;;9.90;99.90;;;;;;5117604;27;20223;-82
2024/01/03 11:42:34;;;;;;;1.40;1.00;;;9.90;1.00;;;;;;5120967;27;20246;-81
2024/01/03 11:45:05;;;;;;;1.83;1.00;;;9.90;1.00;;;;;;5118634;28;20229;-82
2024/01/03 11:47:33;;;;;;;2.10;1.03;;;9.90;1.00;;;;;;5115336;28;20201;-81
2024/01/03 11:50:03;;;;;;;2.97;1.00;;;9.90;99.90;;;;;;5117152;27;20693;-83
2024/01/03 11:52:32;;;;;;;2.03;1.40;;;9.90;1.00;;;;;;5108570;28;20213;-83
2024/01/03 11:55:07;;;;;;;5.50;2.07;;;9.90;99.90;;;;;;5118524;28;20635;-81
2024/01/03 11:57:35;;;;;;;2.13;1.50;;;9.90;1.00;;;;;;5117828;27;20219;-80
2024/01/03 12:00:05;;;;;;;2.10;1.90;;;10.00;67.40;;;;;;5118381;28;20209;-82
2024/01/03 12:02:32;;;;;;;3.23;2.00;;;10.00;1.00;;;;;;5112189;28;20300;-80
2024/01/03 12:05:00;;;;;;;4.33;2.20;;;10.00;1.00;;;;;;5131653;27;20299;-81
2024/01/03 12:07:28;;;;;;;6.43;2.13;;;9.90;1.00;;;;;;5114320;28;20201;-81
2024/01/03 12:09:57;;;;;;;3.40;2.03;;;9.90;1.00;;;;;;5126247;27;20231;-81
2024/01/03 12:12:24;;;;;;;3.50;2.10;;;9.80;1.00;;;;;;5116779;28;20221;-83
2024/01/03 12:14:52;;;;;;;3.77;2.07;;;9.80;1.00;;;;;;5115888;28;20287;-82
2024/01/03 12:17:26;;;;;;;3.83;2.47;;;9.80;91.20;;;;;;5105747;28;20213;-80
2024/01/03 12:19:53;;;;;;;4.33;2.47;;;9.80;1.00;;;;;;5115843;27;20716;-80
2024/01/03 12:22:24;;;;;;;4.53;2.40;;;9.80;1.00;;;;;;5111960;28;20221;-81
2024/01/03 12:24:51;;;;;;;5.53;2.90;;;9.80;99.90;;;;;;5101616;28;20586;-81
2024/01/03 12:27:23;;;;;;;4.23;2.60;;;9.80;99.90;;;;;;5104315;27;20232;-78
2024/01/03 12:29:51;;;;;;;4.93;2.47;;;9.90;1.00;;;;;;5104062;28;20304;-80
2024/01/03 12:32:19;;;;;;;3.40;2.73;;;10.00;1.00;;;;;;5113224;28;20703;-81
2024/01/03 12:34:49;;;;;;;4.20;3.17;;;9.90;99.90;;;;;;5115971;28;20201;-81
2024/01/03 12:37:16;;;;;;;3.30;2.80;;;10.00;1.00;;;;;;5109755;27;20670;-78
2024/01/03 12:39:43;;;;;;;2.90;2.60;;;10.00;99.90;;;;;;5113583;27;20208;-81
2024/01/03 12:42:12;;;;;;;5.07;2.80;;;9.90;1.00;;;;;;5114495;28;20292;-80
2024/01/03 12:44:42;;;;;;;6.33;2.80;;;9.90;1.00;;;;;;5116692;28;20207;-81
2024/01/03 12:47:10;;;;;;;6.60;2.87;;;9.90;1.00;;;;;;5108387;28;20233;-80
2024/01/03 12:49:39;;;;;;;3.23;2.67;;;9.90;99.90;;;;;;5115796;28;20197;-81
2024/01/03 12:52:08;;;;;;;2.87;2.47;;;9.90;21.00;;;;;;5113042;28;20662;-82
2024/01/03 12:54:35;;;;;;;3.73;2.77;;;9.90;1.00;;;;;;5115577;28;20209;-81
2024/01/03 12:57:02;;;;;;;3.33;2.50;;;9.90;1.00;;;;;;5115103;28;20292;-81
2024/01/03 12:59:29;;;;;;;6.00;2.40;;;9.90;99.90;;;;;;5110452;28;20549;-81
2024/01/03 13:01:56;;;;;;;4.77;2.20;;;9.90;99.90;;;;;;5118120;28;20297;-82